LEALLECO

Guest
Details From LEAL - Alicante
To LECO - A Coruna
Flight Number -
Tags Decoded
Created
Modified
Stats Distance 466 nm / 863 km
Max Altitude 0 ft / 0 m
Waypoints 4
Social Downloads 0
Likes 0
Share VATSIM

Download

Looking for another format? Having issues loading an existing format? Contact us
Advertisement - Login to hide

Notes

Decoded

Route

LEAL COTOS BERAX LECO

ID Type Via Altitude Latitude Longitude Leg Dist Tot Dist Heading (true) Name
O LEAL APT - 0 ft / 0 m 38.28452˚ -0.57500˚ - 0 nm - -
COTOS FIX - 0 ft / 0 m 40.73230˚ -4.06099˚ 218 nm 218 nm 313° / 311° -
BERAX FIX - 0 ft / 0 m 43.25123˚ -8.17267˚ 237 nm 456 nm 311° / 308° -
O LECO APT - 0 ft / 0 m 43.29478˚ -8.38323˚ 9 nm 465 nm 286° / 286° -

Altitude Profile

Advertisement - Login to hide

Weather


0- 5 10 15 20 25 30 35+ Temperature / ° C

Clouds and Precipitation
Forecast for 2017-12-13 12:00 UTC. Updated 14 minutes ago

Ground ~20,000 ft ~40,000 ft Winds

LEAL

Details ICAO LEAL (ALC)
Name Alicante
Region Spain
Timezone Europe/Madrid (UTC+1.0)
Stats Elevation 141 ft / 43 m (AMSL)
Location 38.282169° -0.558157°
Runways 1
Magnetic Variation 0.183° E

METAR

LEAL 130730Z 26007KT CAVOK 07/M01 Q1027 NOSIG

Decode

TAF

TAF TAF LEAL 130500Z 1306/1406 30008KT CAVOK TX17/1312Z TN04/1307Z BECMG 1312/1314 24010KT PROB40 TEMPO 1322/1406 28015G25KT

Decode

Departure Runways

ID Width Length Bearing (true) Bearing (mag) Surface Threshold Offset Overrun Length
10 148 ft / 45 m 9,799 ft / 2,987 m 100.07° 99.89° Asphalt 0 ft / 0 m 164 ft / 50 m
28 148 ft / 45 m 9,799 ft / 2,987 m 280.09° 279.91° Asphalt 0 ft / 0 m 197 ft / 60 m

LECO

Details ICAO LECO (LCG)
Name A Coruna
Region Spain
Timezone Europe/Madrid (UTC+1.0)
Stats Elevation 323 ft / 98 m (AMSL)
Location 43.302264° -8.377086°
Runways 1
Magnetic Variation 2.392° W

METAR

LECO 130730Z 19005KT 160V220 9999 SCT022 BKN029 11/09 Q1022 NOSIG

Decode

TAF

TAF LECO 130200Z 1303/1403 21009KT 9999 SCT016 BKN030 TX15/1314Z TN09/1307Z PROB30 TEMPO 1303/1306 RA BKN010 TEMPO 1310/1321 21015G25KT TEMPO 1315/1403 RA BKN014 PROB40 TEMPO 1318/1403 30010KT 3000 RA BKN010

Decode

Destination Runways

ID Width Length Bearing (true) Bearing (mag) Surface Threshold Offset Overrun Length
04 148 ft / 45 m 6,371 ft / 1,942 m 30.94° 33.33° Asphalt 0 ft / 0 m 194 ft / 59 m
22 148 ft / 45 m 6,371 ft / 1,942 m 210.94° 213.33° Asphalt 0 ft / 0 m 203 ft / 62 m

Approach Navaids

Runway Type Ident Frequency Range Bearing (true) Bearing (mag) Slope Elevation
22 Localiser LCO 109.90 MHz 18 nm / 33 km 210.89° 213.28° - 329 ft / 100 m (AMSL)
22 Glidescope LCO 109.90 MHz 10 nm / 19 km 210.94° 213.33° 3.00° 323 ft / 98 m (AMSL)
22 DME LCO 109.90 MHz 18 nm / 33 km - - - 293 ft / 89 m (AMSL)

Popular Alternatives